sensor_id;sensor_type;location;lat;lon;timestamp;P1;durP1;ratioP1;P2;durP2;ratioP2
35223;SDS011;21367;51.930;8.112;2023-02-22T00:01:22;126.18;;;38.58;;
35223;SDS011;21367;51.930;8.112;2023-02-22T00:06:34;108.40;;;35.40;;
35223;SDS011;21367;51.930;8.112;2023-02-22T00:11:41;119.38;;;35.97;;
35223;SDS011;21367;51.930;8.112;2023-02-22T00:16:48;110.30;;;34.90;;
35223;SDS011;21367;51.930;8.112;2023-02-22T00:21:53;100.15;;;33.28;;
35223;SDS011;21367;51.930;8.112;2023-02-22T00:26:59;108.75;;;34.33;;
35223;SDS011;21367;51.930;8.112;2023-02-22T00:32:03;93.43;;;30.50;;
35223;SDS011;21367;51.930;8.112;2023-02-22T00:37:08;100.13;;;32.05;;
35223;SDS011;21367;51.930;8.112;2023-02-22T00:42:15;83.70;;;29.85;;
35223;SDS011;21367;51.930;8.112;2023-02-22T00:47:20;90.90;;;30.90;;
35223;SDS011;21367;51.930;8.112;2023-02-22T00:52:25;88.47;;;30.05;;
35223;SDS011;21367;51.930;8.112;2023-02-22T00:57:32;82.68;;;28.52;;
35223;SDS011;21367;51.930;8.112;2023-02-22T01:02:36;77.35;;;26.67;;
35223;SDS011;21367;51.930;8.112;2023-02-22T01:07:40;73.55;;;26.58;;
35223;SDS011;21367;51.930;8.112;2023-02-22T01:12:47;74.90;;;26.02;;
35223;SDS011;21367;51.930;8.112;2023-02-22T01:17:52;77.30;;;27.33;;
35223;SDS011;21367;51.930;8.112;2023-02-22T01:22:59;76.40;;;26.17;;
35223;SDS011;21367;51.930;8.112;2023-02-22T01:28:08;74.28;;;26.88;;
35223;SDS011;21367;51.930;8.112;2023-02-22T01:33:13;72.50;;;25.92;;
35223;SDS011;21367;51.930;8.112;2023-02-22T01:38:18;67.20;;;24.75;;
35223;SDS011;21367;51.930;8.112;2023-02-22T01:43:27;71.15;;;25.00;;
35223;SDS011;21367;51.930;8.112;2023-02-22T01:48:34;63.20;;;23.33;;
35223;SDS011;21367;51.930;8.112;2023-02-22T01:53:44;65.40;;;24.05;;
35223;SDS011;21367;51.930;8.112;2023-02-22T01:58:55;64.70;;;22.83;;
35223;SDS011;21367;51.930;8.112;2023-02-22T02:04:03;66.90;;;22.23;;
35223;SDS011;21367;51.930;8.112;2023-02-22T02:09:11;57.30;;;20.15;;
35223;SDS011;21367;51.930;8.112;2023-02-22T02:14:24;57.40;;;21.73;;
35223;SDS011;21367;51.930;8.112;2023-02-22T02:19:33;61.28;;;19.92;;
35223;SDS011;21367;51.930;8.112;2023-02-22T02:24:56;53.35;;;18.60;;
35223;SDS011;21367;51.930;8.112;2023-02-22T02:30:29;50.88;;;17.80;;
35223;SDS011;21367;51.930;8.112;2023-02-22T02:35:55;45.70;;;17.70;;
35223;SDS011;21367;51.930;8.112;2023-02-22T02:41:06;90.93;;;19.02;;
35223;SDS011;21367;51.930;8.112;2023-02-22T02:46:18;134.85;;;16.70;;
35223;SDS011;21367;51.930;8.112;2023-02-22T02:51:30;91.97;;;16.08;;
35223;SDS011;21367;51.930;8.112;2023-02-22T02:56:39;155.60;;;16.50;;
35223;SDS011;21367;51.930;8.112;2023-02-22T03:01:46;39.67;;;14.77;;
35223;SDS011;21367;51.930;8.112;2023-02-22T03:12:44;152.77;;;19.85;;
35223;SDS011;21367;51.930;8.112;2023-02-22T03:18:00;133.00;;;21.67;;
35223;SDS011;21367;51.930;8.112;2023-02-22T03:23:09;465.95;;;26.50;;
35223;SDS011;21367;51.930;8.112;2023-02-22T03:28:26;101.78;;;20.23;;
35223;SDS011;21367;51.930;8.112;2023-02-22T03:33:34;60.67;;;21.63;;
35223;SDS011;21367;51.930;8.112;2023-02-22T03:38:43;147.23;;;22.48;;
35223;SDS011;21367;51.930;8.112;2023-02-22T03:43:52;95.38;;;21.35;;
35223;SDS011;21367;51.930;8.112;2023-02-22T03:49:01;208.00;;;21.23;;
35223;SDS011;21367;51.930;8.112;2023-02-22T03:54:11;411.00;;;26.02;;
35223;SDS011;21367;51.930;8.112;2023-02-22T03:59:21;254.77;;;24.17;;
35223;SDS011;21367;51.930;8.112;2023-02-22T04:04:27;515.53;;;29.13;;
35223;SDS011;21367;51.930;8.112;2023-02-22T04:09:31;191.30;;;23.13;;
35223;SDS011;21367;51.930;8.112;2023-02-22T04:14:38;88.15;;;21.90;;
35223;SDS011;21367;51.930;8.112;2023-02-22T04:19:42;249.32;;;23.67;;
35223;SDS011;21367;51.930;8.112;2023-02-22T04:24:47;579.42;;;30.98;;
35223;SDS011;21367;51.930;8.112;2023-02-22T04:29:54;197.73;;;21.73;;
35223;SDS011;21367;51.930;8.112;2023-02-22T04:34:58;306.95;;;23.23;;
35223;SDS011;21367;51.930;8.112;2023-02-22T04:40:04;194.55;;;20.45;;
35223;SDS011;21367;51.930;8.112;2023-02-22T04:45:13;90.03;;;20.70;;
35223;SDS011;21367;51.930;8.112;2023-02-22T04:50:17;122.45;;;18.10;;
35223;SDS011;21367;51.930;8.112;2023-02-22T04:55:21;140.20;;;16.08;;
35223;SDS011;21367;51.930;8.112;2023-02-22T05:00:28;274.95;;;19.33;;
35223;SDS011;21367;51.930;8.112;2023-02-22T05:05:35;78.68;;;15.20;;
35223;SDS011;21367;51.930;8.112;2023-02-22T05:10:39;70.32;;;13.38;;
35223;SDS011;21367;51.930;8.112;2023-02-22T05:15:45;40.33;;;13.00;;
35223;SDS011;21367;51.930;8.112;2023-02-22T05:20:49;115.90;;;13.55;;
35223;SDS011;21367;51.930;8.112;2023-02-22T05:25:53;307.48;;;14.88;;
35223;SDS011;21367;51.930;8.112;2023-02-22T05:31:00;94.53;;;13.60;;
35223;SDS011;21367;51.930;8.112;2023-02-22T05:36:04;34.67;;;12.77;;
35223;SDS011;21367;51.930;8.112;2023-02-22T05:41:10;141.95;;;12.93;;
35223;SDS011;21367;51.930;8.112;2023-02-22T05:46:17;264.37;;;14.03;;
35223;SDS011;21367;51.930;8.112;2023-02-22T05:51:21;118.38;;;11.75;;
35223;SDS011;21367;51.930;8.112;2023-02-22T05:56:26;215.90;;;14.13;;
35223;SDS011;21367;51.930;8.112;2023-02-22T06:01:34;266.77;;;14.77;;
35223;SDS011;21367;51.930;8.112;2023-02-22T06:11:41;101.75;;;10.43;;
35223;SDS011;21367;51.930;8.112;2023-02-22T06:16:53;115.15;;;9.38;;
35223;SDS011;21367;51.930;8.112;2023-02-22T06:21:57;135.75;;;9.43;;
35223;SDS011;21367;51.930;8.112;2023-02-22T06:27:04;97.82;;;9.65;;
35223;SDS011;21367;51.930;8.112;2023-02-22T06:32:10;46.10;;;7.85;;
35223;SDS011;21367;51.930;8.112;2023-02-22T06:42:20;54.13;;;8.27;;
35223;SDS011;21367;51.930;8.112;2023-02-22T06:47:26;22.73;;;9.50;;
35223;SDS011;21367;51.930;8.112;2023-02-22T06:52:30;455.30;;;25.05;;
35223;SDS011;21367;51.930;8.112;2023-02-22T06:57:34;579.17;;;29.23;;
35223;SDS011;21367;51.930;8.112;2023-02-22T07:02:40;100.68;;;21.25;;
35223;SDS011;21367;51.930;8.112;2023-02-22T07:07:44;394.55;;;20.23;;
35223;SDS011;21367;51.930;8.112;2023-02-22T07:12:49;176.20;;;14.40;;
35223;SDS011;21367;51.930;8.112;2023-02-22T07:17:55;37.33;;;10.43;;
35223;SDS011;21367;51.930;8.112;2023-02-22T07:22:59;279.83;;;14.88;;
35223;SDS011;21367;51.930;8.112;2023-02-22T07:28:04;45.28;;;11.85;;
35223;SDS011;21367;51.930;8.112;2023-02-22T07:33:12;24.45;;;10.65;;
35223;SDS011;21367;51.930;8.112;2023-02-22T07:43:20;241.70;;;17.50;;
35223;SDS011;21367;51.930;8.112;2023-02-22T07:48:30;305.08;;;21.60;;
35223;SDS011;21367;51.930;8.112;2023-02-22T07:53:34;162.77;;;18.38;;
35223;SDS011;21367;51.930;8.112;2023-02-22T07:58:38;97.45;;;18.52;;
35223;SDS011;21367;51.930;8.112;2023-02-22T08:03:44;153.35;;;20.92;;
35223;SDS011;21367;51.930;8.112;2023-02-22T08:13:51;75.07;;;20.40;;
35223;SDS011;21367;51.930;8.112;2023-02-22T08:18:58;134.57;;;23.45;;
35223;SDS011;21367;51.930;8.112;2023-02-22T08:24:01;259.63;;;25.40;;
35223;SDS011;21367;51.930;8.112;2023-02-22T08:29:05;136.55;;;25.27;;
35223;SDS011;21367;51.930;8.112;2023-02-22T08:34:12;109.03;;;24.35;;
35223;SDS011;21367;51.930;8.112;2023-02-22T08:39:16;105.97;;;25.65;;
35223;SDS011;21367;51.930;8.112;2023-02-22T08:44:19;69.47;;;22.17;;
35223;SDS011;21367;51.930;8.112;2023-02-22T08:49:27;47.58;;;20.85;;
35223;SDS011;21367;51.930;8.112;2023-02-22T08:59:34;60.50;;;23.75;;
35223;SDS011;21367;51.930;8.112;2023-02-22T09:04:41;61.05;;;24.25;;
35223;SDS011;21367;51.930;8.112;2023-02-22T09:09:44;59.45;;;23.23;;
35223;SDS011;21367;51.930;8.112;2023-02-22T09:14:48;58.92;;;24.73;;
35223;SDS011;21367;51.930;8.112;2023-02-22T09:19:55;63.45;;;25.80;;
35223;SDS011;21367;51.930;8.112;2023-02-22T09:24:58;55.03;;;23.77;;
35223;SDS011;21367;51.930;8.112;2023-02-22T09:30:02;65.00;;;25.50;;
35223;SDS011;21367;51.930;8.112;2023-02-22T09:35:13;59.10;;;25.90;;
35223;SDS011;21367;51.930;8.112;2023-02-22T09:40:17;62.85;;;27.05;;
35223;SDS011;21367;51.930;8.112;2023-02-22T09:45:26;68.90;;;26.17;;
35223;SDS011;21367;51.930;8.112;2023-02-22T09:50:39;63.95;;;27.58;;
35223;SDS011;21367;51.930;8.112;2023-02-22T09:55:45;55.83;;;25.73;;
35223;SDS011;21367;51.930;8.112;2023-02-22T10:00:54;60.80;;;26.27;;
35223;SDS011;21367;51.930;8.112;2023-02-22T10:06:08;59.85;;;25.75;;
35223;SDS011;21367;51.930;8.112;2023-02-22T10:11:17;63.65;;;25.70;;
35223;SDS011;21367;51.930;8.112;2023-02-22T10:16:33;53.70;;;24.13;;
35223;SDS011;21367;51.930;8.112;2023-02-22T10:27:15;57.85;;;24.77;;
35223;SDS011;21367;51.930;8.112;2023-02-22T10:32:23;54.65;;;22.77;;
35223;SDS011;21367;51.930;8.112;2023-02-22T10:37:34;55.35;;;21.60;;
35223;SDS011;21367;51.930;8.112;2023-02-22T10:47:41;41.55;;;18.85;;
35223;SDS011;21367;51.930;8.112;2023-02-22T10:52:47;41.53;;;19.98;;
35223;SDS011;21367;51.930;8.112;2023-02-22T10:57:58;40.60;;;17.52;;
35223;SDS011;21367;51.930;8.112;2023-02-22T11:03:04;43.97;;;19.05;;
35223;SDS011;21367;51.930;8.112;2023-02-22T11:08:27;42.58;;;18.38;;
35223;SDS011;21367;51.930;8.112;2023-02-22T11:13:33;42.90;;;18.83;;
35223;SDS011;21367;51.930;8.112;2023-02-22T11:18:40;43.30;;;19.23;;
35223;SDS011;21367;51.930;8.112;2023-02-22T11:23:47;42.70;;;17.13;;
35223;SDS011;21367;51.930;8.112;2023-02-22T11:28:52;42.60;;;18.30;;
35223;SDS011;21367;51.930;8.112;2023-02-22T11:33:57;42.30;;;17.40;;
35223;SDS011;21367;51.930;8.112;2023-02-22T11:39:10;35.38;;;15.23;;
35223;SDS011;21367;51.930;8.112;2023-02-22T11:44:26;34.83;;;15.32;;
35223;SDS011;21367;51.930;8.112;2023-02-22T11:49:31;35.85;;;15.85;;
35223;SDS011;21367;51.930;8.112;2023-02-22T12:00:11;29.35;;;13.38;;
35223;SDS011;21367;51.930;8.112;2023-02-22T12:05:26;32.95;;;12.90;;
35223;SDS011;21367;51.930;8.112;2023-02-22T12:10:48;31.58;;;13.57;;
35223;SDS011;21367;51.930;8.112;2023-02-22T12:16:01;25.08;;;12.30;;
35223;SDS011;21367;51.930;8.112;2023-02-22T12:21:14;24.83;;;11.05;;
35223;SDS011;21367;51.930;8.112;2023-02-22T12:26:27;24.92;;;10.77;;
35223;SDS011;21367;51.930;8.112;2023-02-22T12:31:36;27.23;;;11.25;;
35223;SDS011;21367;51.930;8.112;2023-02-22T12:36:46;27.50;;;10.18;;
35223;SDS011;21367;51.930;8.112;2023-02-22T12:41:55;18.77;;;10.02;;
35223;SDS011;21367;51.930;8.112;2023-02-22T12:47:02;21.73;;;9.77;;
35223;SDS011;21367;51.930;8.112;2023-02-22T12:52:12;27.02;;;11.15;;
35223;SDS011;21367;51.930;8.112;2023-02-22T12:57:24;20.25;;;10.32;;
35223;SDS011;21367;51.930;8.112;2023-02-22T13:02:38;21.73;;;10.82;;
35223;SDS011;21367;51.930;8.112;2023-02-22T13:07:47;26.30;;;10.30;;
35223;SDS011;21367;51.930;8.112;2023-02-22T13:13:09;25.48;;;9.80;;
35223;SDS011;21367;51.930;8.112;2023-02-22T13:18:21;24.88;;;10.40;;
35223;SDS011;21367;51.930;8.112;2023-02-22T13:23:35;22.00;;;10.27;;
35223;SDS011;21367;51.930;8.112;2023-02-22T13:28:47;24.17;;;9.73;;
35223;SDS011;21367;51.930;8.112;2023-02-22T13:34:01;17.42;;;8.98;;
35223;SDS011;21367;51.930;8.112;2023-02-22T13:39:25;14.45;;;8.10;;
35223;SDS011;21367;51.930;8.112;2023-02-22T13:45:01;16.55;;;7.65;;
35223;SDS011;21367;51.930;8.112;2023-02-22T13:56:06;13.40;;;6.95;;
35223;SDS011;21367;51.930;8.112;2023-02-22T14:01:13;14.68;;;6.65;;
35223;SDS011;21367;51.930;8.112;2023-02-22T14:06:40;16.15;;;7.32;;
35223;SDS011;21367;51.930;8.112;2023-02-22T14:11:45;20.00;;;7.05;;
35223;SDS011;21367;51.930;8.112;2023-02-22T14:22:40;14.82;;;7.07;;
35223;SDS011;21367;51.930;8.112;2023-02-22T14:27:45;14.38;;;6.75;;
35223;SDS011;21367;51.930;8.112;2023-02-22T14:32:51;13.38;;;6.50;;
35223;SDS011;21367;51.930;8.112;2023-02-22T14:37:55;13.60;;;6.72;;
35223;SDS011;21367;51.930;8.112;2023-02-22T14:43:05;16.83;;;5.93;;
35223;SDS011;21367;51.930;8.112;2023-02-22T14:48:19;18.35;;;6.25;;
35223;SDS011;21367;51.930;8.112;2023-02-22T14:53:29;18.77;;;7.10;;
35223;SDS011;21367;51.930;8.112;2023-02-22T14:58:40;18.00;;;5.85;;
35223;SDS011;21367;51.930;8.112;2023-02-22T15:03:49;16.20;;;6.25;;
35223;SDS011;21367;51.930;8.112;2023-02-22T15:09:04;12.85;;;5.28;;
35223;SDS011;21367;51.930;8.112;2023-02-22T15:14:14;13.23;;;5.82;;
35223;SDS011;21367;51.930;8.112;2023-02-22T15:19:24;12.57;;;5.60;;
35223;SDS011;21367;51.930;8.112;2023-02-22T15:24:34;16.90;;;6.25;;
35223;SDS011;21367;51.930;8.112;2023-02-22T15:29:40;16.67;;;6.47;;
35223;SDS011;21367;51.930;8.112;2023-02-22T15:34:49;17.88;;;5.97;;
35223;SDS011;21367;51.930;8.112;2023-02-22T15:40:03;32.83;;;7.80;;
35223;SDS011;21367;51.930;8.112;2023-02-22T15:45:15;19.75;;;7.40;;
35223;SDS011;21367;51.930;8.112;2023-02-22T15:50:24;18.30;;;7.40;;
35223;SDS011;21367;51.930;8.112;2023-02-22T15:55:28;19.83;;;7.25;;
35223;SDS011;21367;51.930;8.112;2023-02-22T16:00:35;12.07;;;6.05;;
35223;SDS011;21367;51.930;8.112;2023-02-22T16:10:51;18.27;;;6.93;;
35223;SDS011;21367;51.930;8.112;2023-02-22T16:16:02;13.65;;;6.30;;
35223;SDS011;21367;51.930;8.112;2023-02-22T16:21:12;14.77;;;6.97;;
35223;SDS011;21367;51.930;8.112;2023-02-22T16:26:18;16.83;;;7.15;;
35223;SDS011;21367;51.930;8.112;2023-02-22T16:31:29;17.27;;;7.80;;
35223;SDS011;21367;51.930;8.112;2023-02-22T16:41:45;20.73;;;8.65;;
35223;SDS011;21367;51.930;8.112;2023-02-22T16:46:49;19.13;;;9.50;;
35223;SDS011;21367;51.930;8.112;2023-02-22T16:51:57;19.77;;;9.07;;
35223;SDS011;21367;51.930;8.112;2023-02-22T16:57:03;22.13;;;9.52;;
35223;SDS011;21367;51.930;8.112;2023-02-22T17:02:09;25.02;;;10.18;;
35223;SDS011;21367;51.930;8.112;2023-02-22T17:07:19;25.20;;;10.38;;
35223;SDS011;21367;51.930;8.112;2023-02-22T17:12:29;21.73;;;10.30;;
35223;SDS011;21367;51.930;8.112;2023-02-22T17:17:34;29.83;;;10.93;;
35223;SDS011;21367;51.930;8.112;2023-02-22T17:22:40;25.20;;;10.90;;
35223;SDS011;21367;51.930;8.112;2023-02-22T17:32:47;25.15;;;10.18;;
35223;SDS011;21367;51.930;8.112;2023-02-22T17:37:54;30.15;;;10.13;;
35223;SDS011;21367;51.930;8.112;2023-02-22T17:42:59;28.27;;;10.38;;
35223;SDS011;21367;51.930;8.112;2023-02-22T17:48:03;34.50;;;9.50;;
35223;SDS011;21367;51.930;8.112;2023-02-22T17:53:10;30.30;;;10.18;;
35223;SDS011;21367;51.930;8.112;2023-02-22T17:58:14;28.70;;;9.75;;
35223;SDS011;21367;51.930;8.112;2023-02-22T18:03:19;32.55;;;11.63;;
35223;SDS011;21367;51.930;8.112;2023-02-22T18:08:28;28.15;;;9.73;;
35223;SDS011;21367;51.930;8.112;2023-02-22T18:13:33;27.02;;;10.88;;
35223;SDS011;21367;51.930;8.112;2023-02-22T18:18:37;27.30;;;10.02;;
35223;SDS011;21367;51.930;8.112;2023-02-22T18:23:43;28.15;;;9.90;;
35223;SDS011;21367;51.930;8.112;2023-02-22T18:33:51;38.28;;;12.95;;
35223;SDS011;21367;51.930;8.112;2023-02-22T18:44:04;55.80;;;22.13;;
35223;SDS011;21367;51.930;8.112;2023-02-22T18:49:10;62.25;;;25.77;;
35223;SDS011;21367;51.930;8.112;2023-02-22T18:54:18;71.50;;;28.75;;
35223;SDS011;21367;51.930;8.112;2023-02-22T18:59:21;75.28;;;27.80;;
35223;SDS011;21367;51.930;8.112;2023-02-22T19:04:25;60.13;;;22.10;;
35223;SDS011;21367;51.930;8.112;2023-02-22T19:09:31;53.90;;;20.60;;
35223;SDS011;21367;51.930;8.112;2023-02-22T19:14:36;33.72;;;14.35;;
35223;SDS011;21367;51.930;8.112;2023-02-22T19:19:41;38.67;;;15.00;;
35223;SDS011;21367;51.930;8.112;2023-02-22T19:29:53;30.80;;;11.70;;
35223;SDS011;21367;51.930;8.112;2023-02-22T19:34:57;29.45;;;11.30;;
35223;SDS011;21367;51.930;8.112;2023-02-22T19:40:09;25.45;;;11.43;;
35223;SDS011;21367;51.930;8.112;2023-02-22T19:45:16;29.50;;;11.68;;
35223;SDS011;21367;51.930;8.112;2023-02-22T19:50:20;25.88;;;9.98;;
35223;SDS011;21367;51.930;8.112;2023-02-22T19:55:27;26.30;;;10.02;;
35223;SDS011;21367;51.930;8.112;2023-02-22T20:00:32;20.98;;;10.45;;
35223;SDS011;21367;51.930;8.112;2023-02-22T20:05:37;27.60;;;10.98;;
35223;SDS011;21367;51.930;8.112;2023-02-22T20:10:44;30.67;;;11.02;;
35223;SDS011;21367;51.930;8.112;2023-02-22T20:15:48;26.08;;;10.00;;
35223;SDS011;21367;51.930;8.112;2023-02-22T20:20:52;23.85;;;9.65;;
35223;SDS011;21367;51.930;8.112;2023-02-22T20:25:59;24.70;;;10.38;;
35223;SDS011;21367;51.930;8.112;2023-02-22T20:31:06;22.70;;;9.95;;
35223;SDS011;21367;51.930;8.112;2023-02-22T20:36:11;28.48;;;10.88;;
35223;SDS011;21367;51.930;8.112;2023-02-22T20:41:21;21.55;;;10.82;;
35223;SDS011;21367;51.930;8.112;2023-02-22T20:46:28;28.20;;;9.45;;
35223;SDS011;21367;51.930;8.112;2023-02-22T20:51:35;25.35;;;9.77;;
35223;SDS011;21367;51.930;8.112;2023-02-22T20:56:44;20.58;;;9.65;;
35223;SDS011;21367;51.930;8.112;2023-02-22T21:01:49;26.70;;;11.43;;
35223;SDS011;21367;51.930;8.112;2023-02-22T21:06:53;27.63;;;11.75;;
35223;SDS011;21367;51.930;8.112;2023-02-22T21:12:00;25.17;;;10.68;;
35223;SDS011;21367;51.930;8.112;2023-02-22T21:17:06;28.45;;;11.55;;
35223;SDS011;21367;51.930;8.112;2023-02-22T21:22:11;25.15;;;11.38;;
35223;SDS011;21367;51.930;8.112;2023-02-22T21:27:17;23.50;;;11.18;;
35223;SDS011;21367;51.930;8.112;2023-02-22T21:37:24;34.55;;;15.40;;
35223;SDS011;21367;51.930;8.112;2023-02-22T21:42:31;29.10;;;13.85;;
35223;SDS011;21367;51.930;8.112;2023-02-22T21:52:38;46.00;;;20.05;;
35223;SDS011;21367;51.930;8.112;2023-02-22T21:57:44;50.03;;;20.88;;
35223;SDS011;21367;51.930;8.112;2023-02-22T22:07:52;50.75;;;23.88;;
35223;SDS011;21367;51.930;8.112;2023-02-22T22:12:58;55.78;;;26.88;;
35223;SDS011;21367;51.930;8.112;2023-02-22T22:18:02;61.25;;;29.35;;
35223;SDS011;21367;51.930;8.112;2023-02-22T22:23:08;59.58;;;30.85;;
35223;SDS011;21367;51.930;8.112;2023-02-22T22:28:14;64.68;;;31.75;;
35223;SDS011;21367;51.930;8.112;2023-02-22T22:33:18;74.90;;;34.20;;
35223;SDS011;21367;51.930;8.112;2023-02-22T22:38:21;69.95;;;35.58;;
35223;SDS011;21367;51.930;8.112;2023-02-22T22:43:29;72.90;;;34.20;;
35223;SDS011;21367;51.930;8.112;2023-02-22T22:48:35;73.55;;;34.92;;
35223;SDS011;21367;51.930;8.112;2023-02-22T22:53:39;67.82;;;35.67;;
35223;SDS011;21367;51.930;8.112;2023-02-22T22:58:48;71.13;;;35.15;;
35223;SDS011;21367;51.930;8.112;2023-02-22T23:03:54;70.53;;;34.17;;
35223;SDS011;21367;51.930;8.112;2023-02-22T23:09:02;73.90;;;37.92;;
35223;SDS011;21367;51.930;8.112;2023-02-22T23:14:14;76.32;;;36.97;;
35223;SDS011;21367;51.930;8.112;2023-02-22T23:19:19;78.35;;;40.78;;
35223;SDS011;21367;51.930;8.112;2023-02-22T23:24:23;83.60;;;40.47;;
35223;SDS011;21367;51.930;8.112;2023-02-22T23:29:30;83.78;;;39.47;;
35223;SDS011;21367;51.930;8.112;2023-02-22T23:34:35;74.45;;;40.10;;
35223;SDS011;21367;51.930;8.112;2023-02-22T23:39:40;74.30;;;37.35;;
35223;SDS011;21367;51.930;8.112;2023-02-22T23:44:46;75.60;;;39.60;;
35223;SDS011;21367;51.930;8.112;2023-02-22T23:49:52;78.13;;;38.45;;
35223;SDS011;21367;51.930;8.112;2023-02-22T23:54:58;77.53;;;40.50;;
